createdAt,value
2018-02-23T00:04:45.614Z,2.36
2018-02-23T00:09:49.625Z,2.34
2018-02-23T00:14:57.504Z,2.29
2018-02-23T00:20:01.477Z,2.33
2018-02-23T00:25:06.237Z,2.27
2018-02-23T00:30:09.413Z,2.29
2018-02-23T00:35:14.668Z,2.29
2018-02-23T00:40:18.873Z,2.27
2018-02-23T00:45:27.518Z,2.24
2018-02-23T00:50:30.908Z,2.27
2018-02-23T00:55:35.865Z,2.29
2018-02-23T01:00:39.456Z,2.21
2018-02-23T01:05:44.085Z,2.13
2018-02-23T01:10:48.822Z,2.29
2018-02-23T01:15:53.933Z,2.06
2018-02-23T01:20:57.401Z,1.91
2018-02-23T01:26:02.678Z,1.97
2018-02-23T01:31:06.677Z,1.94
2018-02-23T01:36:11.691Z,1.95
2018-02-23T01:41:15.712Z,1.88
2018-02-23T01:46:19.129Z,1.66
2018-02-23T01:51:23.666Z,1.62
2018-02-23T01:56:28.269Z,1.52
2018-02-23T02:01:32.277Z,1.55
2018-02-23T02:06:37.052Z,1.51
2018-02-23T02:11:40.822Z,1.47
2018-02-23T02:16:48.549Z,1.49
2018-02-23T02:21:52.165Z,1.58
2018-02-23T02:26:57.393Z,1.50
2018-02-23T02:32:00.629Z,1.52
2018-02-23T02:37:07.473Z,1.51
2018-02-23T02:42:10.873Z,1.51
2018-02-23T02:47:17.377Z,1.44
2018-02-23T02:52:20.694Z,1.52
2018-02-23T02:57:28.511Z,1.42
2018-02-23T03:02:33.128Z,1.44
2018-02-23T03:07:40.606Z,1.48
2018-02-23T03:12:44.526Z,1.46
2018-02-23T03:17:48.954Z,1.48
2018-02-23T03:22:52.246Z,1.45
2018-02-23T03:27:56.961Z,1.41
2018-02-23T03:33:01.136Z,1.46
2018-02-23T03:38:07.716Z,1.38
2018-02-23T03:43:11.021Z,1.33
2018-02-23T03:48:15.270Z,1.30
2018-02-23T03:53:19.029Z,1.30
2018-02-23T03:58:22.465Z,1.29
2018-02-23T04:03:29.648Z,1.16
2018-02-23T04:08:33.098Z,1.23
2018-02-23T04:13:38.228Z,1.34
2018-02-23T04:18:41.649Z,1.41
2018-02-23T04:23:46.517Z,1.25
2018-02-23T04:28:50.071Z,1.56
2018-02-23T04:33:57.224Z,1.36
2018-02-23T04:39:01.329Z,1.21
2018-02-23T04:44:08.478Z,1.29
2018-02-23T04:49:12.050Z,1.18
2018-02-23T04:54:16.328Z,1.22
2018-02-23T04:59:20.509Z,1.29
2018-02-23T05:04:25.153Z,1.22
2018-02-23T05:09:29.633Z,1.31
2018-02-23T05:14:33.677Z,1.18
2018-02-23T05:19:38.145Z,1.23
2018-02-23T05:24:41.850Z,1.22
2018-02-23T05:29:45.508Z,1.28
2018-02-23T05:34:49.044Z,1.24
2018-02-23T05:39:53.329Z,1.33
2018-02-23T05:45:00.549Z,1.43
2018-02-23T05:50:04.817Z,1.97
2018-02-23T05:55:09.618Z,1.59
2018-02-23T06:00:13.401Z,1.52
2018-02-23T06:05:19.978Z,1.53
2018-02-23T06:10:23.527Z,1.53
2018-02-23T06:15:26.866Z,1.57
2018-02-23T06:20:30.534Z,1.61
2018-02-23T06:25:35.546Z,1.67
2018-02-23T06:30:39.723Z,1.59
2018-02-23T06:35:43.489Z,1.70
2018-02-23T06:40:47.537Z,1.72
2018-02-23T06:45:56.950Z,1.87
2018-02-23T06:51:00.842Z,1.88
2018-02-23T06:56:04.557Z,1.96
2018-02-23T07:01:09.006Z,1.91
2018-02-23T07:06:16.093Z,2.26
2018-02-23T07:11:19.385Z,2.17
2018-02-23T07:16:26.106Z,2.15
2018-02-23T07:21:29.578Z,2.31
2018-02-23T07:26:34.873Z,2.29
2018-02-23T07:31:38.303Z,2.44
2018-02-23T07:36:45.722Z,2.49
2018-02-23T07:41:49.048Z,2.43
2018-02-23T07:46:53.665Z,2.72
2018-02-23T07:51:57.479Z,2.82
2018-02-23T07:57:02.011Z,3.02
2018-02-23T08:02:05.679Z,3.32
2018-02-23T08:07:10.550Z,3.41
2018-02-23T08:12:14.724Z,4.00
2018-02-23T08:17:20.098Z,4.67
2018-02-23T08:22:24.641Z,3.99
2018-02-23T08:27:34.717Z,4.91
2018-02-23T08:32:38.313Z,4.61
2018-02-23T08:37:43.305Z,4.09
2018-02-23T08:42:51.554Z,4.52
2018-02-23T08:47:55.773Z,4.72
2018-02-23T08:53:03.029Z,4.37
2018-02-23T08:58:06.404Z,4.82
2018-02-23T09:03:10.325Z,4.61
2018-02-23T09:08:13.933Z,4.36
2018-02-23T09:13:21.169Z,5.15
2018-02-23T09:18:25.414Z,5.25
2018-02-23T09:23:30.685Z,5.65
2018-02-23T09:28:34.491Z,5.94
2018-02-23T10:36:43.519Z,8.37
2018-02-23T10:41:47.733Z,8.19
2018-02-23T10:46:54.251Z,8.50
2018-02-23T10:51:58.759Z,7.42
2018-02-23T10:57:04.411Z,8.67
2018-02-23T11:02:10.764Z,9.39
2018-02-23T11:07:16.346Z,9.44
2018-02-23T11:12:22.519Z,8.66
2018-02-23T11:17:27.017Z,9.54
2018-02-23T11:22:35.414Z,9.16
2018-02-23T11:27:42.064Z,9.10
2018-02-23T11:32:49.455Z,8.83
2018-02-23T11:37:54.898Z,9.32
2018-02-23T11:43:01.708Z,8.58
2018-02-23T11:48:08.237Z,8.75
2018-02-23T11:53:13.900Z,8.76
2018-02-23T11:58:18.892Z,9.11
2018-02-23T12:03:51.400Z,10.55
2018-02-23T12:08:55.579Z,9.66
2018-02-23T12:14:04.583Z,10.38
2018-02-23T12:19:08.887Z,11.69
2018-02-23T12:24:20.042Z,10.40
2018-02-23T12:29:25.591Z,10.02
2018-02-23T12:34:31.747Z,11.30
2018-02-23T12:39:38.649Z,11.67
2018-02-23T12:44:45.968Z,9.95
2018-02-23T12:49:51.264Z,10.99
2018-02-23T12:55:00.067Z,9.95
2018-02-23T13:00:04.695Z,8.24
2018-02-23T13:05:12.572Z,10.06
2018-02-23T13:10:17.067Z,9.04
2018-02-23T13:15:24.912Z,8.02
2018-02-23T13:20:30.673Z,7.63
2018-02-23T13:25:35.929Z,8.21
2018-02-23T13:30:41.360Z,8.41
2018-02-23T13:35:46.456Z,7.91
2018-02-23T13:40:56.773Z,8.24
2018-02-23T13:46:07.196Z,7.62
2018-02-23T13:51:11.702Z,8.56
2018-02-23T13:56:17.323Z,8.19
2018-02-23T14:01:21.147Z,7.53
2018-02-23T14:06:40.839Z,7.87
2018-02-23T14:11:50.140Z,7.36
2018-02-23T14:17:00.429Z,7.71
2018-02-23T14:22:07.901Z,8.25
2018-02-23T14:27:11.201Z,7.30
2018-02-23T14:32:16.063Z,7.25
2018-02-23T14:37:20.213Z,6.95
2018-02-23T14:42:24.910Z,7.56
2018-02-23T14:47:28.486Z,7.31
2018-02-23T14:52:33.266Z,6.90
2018-02-23T14:57:36.951Z,7.05
2018-02-23T15:02:40.762Z,6.58
2018-02-23T15:07:44.152Z,6.37
2018-02-23T15:12:48.071Z,6.83
2018-02-23T15:17:52.849Z,6.37
2018-02-23T15:23:00.517Z,6.45
2018-02-23T15:28:03.829Z,6.36
2018-02-23T15:33:08.193Z,6.05
2018-02-23T15:38:12.352Z,6.25
2018-02-23T15:43:19.434Z,6.43
2018-02-23T15:53:52.898Z,5.63
2018-02-23T15:58:56.318Z,5.24
2018-02-23T16:04:02.886Z,5.80
2018-02-23T16:09:06.277Z,5.25
2018-02-23T16:14:09.798Z,4.94
2018-02-23T16:19:14.206Z,4.89
2018-02-23T16:24:17.878Z,4.57
2018-02-23T16:29:22.795Z,4.85
2018-02-23T16:34:26.611Z,4.82
2018-02-23T16:39:30.855Z,4.64
2018-02-23T16:44:37.986Z,4.62
2018-02-23T16:49:42.024Z,4.50
2018-02-23T16:54:45.777Z,4.37
2018-02-23T16:59:49.091Z,4.45
2018-02-23T17:04:52.774Z,4.33
2018-02-23T17:09:56.165Z,5.06
2018-02-23T17:15:03.007Z,4.49
2018-02-23T17:20:07.150Z,4.71
2018-02-23T17:25:14.843Z,4.89
2018-02-23T17:30:18.371Z,5.01
2018-02-23T17:35:21.900Z,5.05
2018-02-23T17:40:27.218Z,4.68
2018-02-23T17:45:31.095Z,4.17
2018-02-23T17:50:35.238Z,4.57
2018-02-23T17:55:38.785Z,4.36
2018-02-23T18:00:43.034Z,4.34
2018-02-23T18:05:49.968Z,4.20
2018-02-23T18:10:54.255Z,4.10
2018-02-23T18:16:02.251Z,4.10
2018-02-23T18:21:05.884Z,4.11
2018-02-23T18:26:10.872Z,3.98
2018-02-23T18:31:21.109Z,3.87
2018-02-23T18:36:25.299Z,3.86
2018-02-23T18:41:29.458Z,4.28
2018-02-23T18:46:32.752Z,3.98
2018-02-23T18:51:39.649Z,3.75
2018-02-23T18:56:44.093Z,3.72
2018-02-23T19:01:47.671Z,4.10
2018-02-23T19:06:52.734Z,3.65
2018-02-23T19:11:57.708Z,3.59
2018-02-23T19:17:02.589Z,3.54
2018-02-23T19:22:08.998Z,3.42
2018-02-23T19:27:13.755Z,3.38
2018-02-23T19:32:17.623Z,3.24
2018-02-23T19:37:21.548Z,3.18
2018-02-23T19:42:26.202Z,3.22
2018-02-23T19:47:30.443Z,3.15
2018-02-23T19:52:33.934Z,3.07
2018-02-23T19:57:37.308Z,3.12
2018-02-23T20:02:40.845Z,3.13
2018-02-23T20:07:44.682Z,3.19
2018-02-23T20:12:48.455Z,3.05
2018-02-23T20:17:52.784Z,3.05
2018-02-23T20:22:57.639Z,3.05
2018-02-23T20:28:01.062Z,2.99
2018-02-23T20:33:04.841Z,2.92
2018-02-23T20:38:08.838Z,2.92
2018-02-23T20:43:13.121Z,2.93
2018-02-23T20:48:17.282Z,2.95
2018-02-23T20:53:24.431Z,2.93
2018-02-23T20:58:28.314Z,2.81
2018-02-23T21:03:33.485Z,3.21
2018-02-23T21:08:37.551Z,2.88
2018-02-23T21:13:44.737Z,2.91
2018-02-23T21:18:48.176Z,2.82
2018-02-23T21:23:55.019Z,2.63
2018-02-23T21:28:59.264Z,2.81
2018-02-23T21:34:05.962Z,2.60
2018-02-23T21:39:09.436Z,2.59
2018-02-23T21:44:14.365Z,2.52
2018-02-23T21:49:18.514Z,2.58
2018-02-23T21:54:25.658Z,2.59
2018-02-23T21:59:29.754Z,2.69
2018-02-23T22:04:33.599Z,2.67
2018-02-23T22:09:37.258Z,2.82
2018-02-23T22:14:43.734Z,2.98
2018-02-23T22:19:47.266Z,2.91
2018-02-23T22:24:50.952Z,2.74
2018-02-23T22:29:54.813Z,2.69
2018-02-23T22:35:01.750Z,2.72
2018-02-23T22:40:05.166Z,2.62
2018-02-23T22:45:09.998Z,2.67
2018-02-23T22:50:13.486Z,2.80
2018-02-23T22:55:16.860Z,2.83
2018-02-23T23:00:20.415Z,2.99
2018-02-23T23:05:24.734Z,2.98
2018-02-23T23:10:29.705Z,2.96
2018-02-23T23:15:33.066Z,2.99
2018-02-23T23:20:37.570Z,3.26
2018-02-23T23:25:40.966Z,3.38
2018-02-23T23:30:46.398Z,2.94
2018-02-23T23:35:50.561Z,3.03
2018-02-23T23:40:54.904Z,3.44
2018-02-23T23:45:58.455Z,3.02
2018-02-23T23:51:03.890Z,2.83
2018-02-23T23:56:08.157Z,2.87
